Time;durP1;ratioP1;P1;durP2;ratioP2;P2;SDS_P1;SDS_P2;PMS_P1;PMS_P2;Temp;Humidity;BMP_temperature;BMP_pressure;BME280_temperature;BME280_humidity;BME280_pressure;Samples;Min_cycle;Max_cycle;Signal;HPM_P1;HPM_P2
2023/09/12 00:00:11;;;;;;;38.47;36.50;;;26.60;99.90;;;;;;5032252;28;20480;-62
2023/09/12 00:02:38;;;;;;;49.23;46.93;;;26.50;99.90;;;;;;5031730;28;20513;-61
2023/09/12 00:05:06;;;;;;;38.33;36.43;;;26.50;99.90;;;;;;5032532;28;20469;-61
2023/09/12 00:07:33;;;;;;;39.07;37.13;;;26.50;99.90;;;;;;5032244;28;20441;-62
2023/09/12 00:10:00;;;;;;;39.00;37.17;;;26.40;99.90;;;;;;5032551;28;20982;-61
2023/09/12 00:12:26;;;;;;;38.60;36.53;;;26.40;99.90;;;;;;5031699;28;21011;-62
2023/09/12 00:14:53;;;;;;;38.77;36.77;;;26.40;99.90;;;;;;5032369;28;20468;-60
2023/09/12 00:17:21;;;;;;;39.97;37.10;;;26.40;99.90;;;;;;5032274;28;20496;-61
2023/09/12 00:19:48;;;;;;;39.67;37.17;;;26.40;99.90;;;;;;5032245;28;20487;-62
2023/09/12 00:22:15;;;;;;;40.90;38.60;;;26.40;99.90;;;;;;5031193;28;20608;-61
2023/09/12 00:24:42;;;;;;;38.93;36.70;;;26.40;99.90;;;;;;5024042;28;20515;-63
2023/09/12 00:27:09;;;;;;;39.83;37.77;;;26.40;99.90;;;;;;5032277;28;20477;-61
2023/09/12 00:29:36;;;;;;;39.07;37.13;;;26.40;99.90;;;;;;5032140;28;20446;-60
2023/09/12 00:32:03;;;;;;;38.87;36.20;;;26.40;99.90;;;;;;5031516;28;20996;-60
2023/09/12 00:34:31;;;;;;;38.37;36.47;;;26.50;99.90;;;;;;5031854;28;20484;-61
2023/09/12 00:36:58;;;;;;;39.20;37.30;;;26.50;99.90;;;;;;5031910;28;20476;-60
2023/09/12 00:39:25;;;;;;;39.20;37.10;;;26.50;99.90;;;;;;5031825;28;20476;-61
2023/09/12 00:41:52;;;;;;;39.47;37.40;;;26.50;99.90;;;;;;5031945;28;20515;-61
2023/09/12 00:44:18;;;;;;;38.60;36.60;;;26.50;99.90;;;;;;5032142;28;20513;-61
2023/09/12 00:46:47;;;;;;;39.33;37.20;;;26.50;99.90;;;;;;5032458;28;20470;-61
2023/09/12 00:49:15;;;;;;;40.27;38.00;;;26.50;99.90;;;;;;5033727;28;20475;-61
2023/09/12 00:51:44;;;;;;;37.43;35.73;;;26.50;99.90;;;;;;5035275;28;20515;-61
2023/09/12 00:54:11;;;;;;;39.27;37.17;;;26.40;99.90;;;;;;5036101;28;20472;-61
2023/09/12 00:56:39;;;;;;;40.97;38.97;;;26.40;99.90;;;;;;5035405;28;20479;-60
2023/09/12 00:59:07;;;;;;;39.70;37.47;;;26.40;99.90;;;;;;5035972;28;20477;-61
2023/09/12 01:01:34;;;;;;;41.13;38.83;;;26.40;99.90;;;;;;5035139;28;20919;-61
2023/09/12 01:04:02;;;;;;;40.67;38.70;;;26.40;99.90;;;;;;5035249;28;21009;-61
2023/09/12 01:06:31;;;;;;;37.40;35.80;;;26.30;99.90;;;;;;5036046;28;20445;-61
2023/09/12 01:08:59;;;;;;;39.70;37.23;;;26.40;99.90;;;;;;5035357;28;20485;-61
2023/09/12 01:11:27;;;;;;;38.40;36.60;;;26.30;99.90;;;;;;5035229;28;20507;-62
2023/09/12 01:13:54;;;;;;;41.47;39.07;;;26.30;99.90;;;;;;5035601;28;20868;-52
2023/09/12 01:16:21;;;;;;;40.40;38.50;;;26.40;99.90;;;;;;5034892;28;20480;-59
2023/09/12 01:18:48;;;;;;;38.53;36.63;;;26.40;99.90;;;;;;5034379;28;20478;-56
2023/09/12 01:21:57;;;;;;;39.33;37.43;;;26.40;99.90;;;;;;5034929;28;20889;-59
2023/09/12 01:24:53;;;;;;;37.10;35.30;;;26.30;99.90;;;;;;5024024;28;20551;-57
2023/09/12 01:27:26;;;;;;;39.93;37.80;;;26.30;99.90;;;;;;5034839;28;20512;-57
2023/09/12 01:29:57;;;;;;;39.70;37.80;;;26.30;99.90;;;;;;5034779;28;20503;-58
2023/09/12 01:32:24;;;;;;;40.10;37.97;;;26.30;99.90;;;;;;5034421;28;20519;-57
2023/09/12 01:34:51;;;;;;;43.00;40.40;;;26.30;99.90;;;;;;5035066;28;20476;-62
2023/09/12 01:37:18;;;;;;;40.50;38.30;;;26.20;99.90;;;;;;5034843;28;20980;-62
2023/09/12 01:39:45;;;;;;;39.80;37.80;;;26.20;99.90;;;;;;5035012;28;20900;-62
2023/09/12 01:42:16;;;;;;;42.70;39.73;;;26.20;99.90;;;;;;5034950;28;20511;-61
2023/09/12 01:44:46;;;;;;;41.27;38.80;;;26.20;99.90;;;;;;5034807;28;20481;-60
2023/09/12 01:47:14;;;;;;;42.17;39.87;;;26.20;99.90;;;;;;5034959;28;20488;-61
2023/09/12 01:49:44;;;;;;;41.00;38.50;;;26.20;99.90;;;;;;5034826;28;20480;-60
2023/09/12 01:52:12;;;;;;;42.03;39.57;;;26.20;99.90;;;;;;5035089;28;20489;-60
2023/09/12 01:54:40;;;;;;;39.70;37.60;;;26.20;99.90;;;;;;5034898;28;20859;-62
2023/09/12 01:57:08;;;;;;;39.43;37.43;;;26.20;99.90;;;;;;5034249;28;20481;-62
2023/09/12 01:59:35;;;;;;;49.67;47.30;;;26.20;99.90;;;;;;5034500;28;20469;-61
2023/09/12 02:02:03;;;;;;;54.57;52.03;;;26.20;99.90;;;;;;5033570;28;21006;-61
2023/09/12 02:04:30;;;;;;;41.80;39.30;;;26.20;99.90;;;;;;5034254;28;20513;-61
2023/09/12 02:06:58;;;;;;;40.00;37.73;;;26.20;99.90;;;;;;5033760;28;20485;-61
2023/09/12 02:09:25;;;;;;;40.17;37.97;;;26.20;99.90;;;;;;5034243;28;20440;-62
2023/09/12 02:11:52;;;;;;;40.00;37.73;;;26.20;99.90;;;;;;5034829;28;20488;-60
2023/09/12 02:14:19;;;;;;;39.33;37.07;;;26.20;99.90;;;;;;5034613;28;20520;-62
2023/09/12 02:16:46;;;;;;;40.57;38.10;;;26.20;99.90;;;;;;5025723;28;20469;-60
2023/09/12 02:19:14;;;;;;;42.03;39.23;;;26.20;99.90;;;;;;5033736;28;20473;-56
2023/09/12 02:21:41;;;;;;;40.60;38.50;;;26.20;99.90;;;;;;5034130;28;20503;-61
2023/09/12 02:24:09;;;;;;;40.30;38.00;;;26.20;99.90;;;;;;5034069;28;20476;-61
2023/09/12 02:26:37;;;;;;;40.60;38.40;;;26.20;99.90;;;;;;5033893;28;20503;-62
2023/09/12 02:29:05;;;;;;;43.37;40.90;;;26.20;99.90;;;;;;5034586;28;20441;-62
2023/09/12 02:31:32;;;;;;;41.63;39.30;;;26.20;99.90;;;;;;5034177;28;20488;-61
2023/09/12 02:33:59;;;;;;;39.93;37.83;;;26.20;99.90;;;;;;5034026;28;20472;-62
2023/09/12 02:36:29;;;;;;;42.60;39.97;;;26.20;99.90;;;;;;5033600;28;20485;-60
2023/09/12 02:38:55;;;;;;;44.47;41.97;;;26.20;99.90;;;;;;5034655;28;20476;-63
2023/09/12 02:41:22;;;;;;;46.77;44.53;;;26.20;99.90;;;;;;5033489;28;20497;-57
2023/09/12 02:43:49;;;;;;;40.80;38.30;;;26.20;99.90;;;;;;5033208;28;20477;-58
2023/09/12 02:46:16;;;;;;;40.43;38.10;;;26.20;99.90;;;;;;5033211;28;20489;-54
2023/09/12 02:48:43;;;;;;;41.47;39.17;;;26.20;99.90;;;;;;5033608;28;20471;-52
2023/09/12 02:51:10;;;;;;;39.67;37.57;;;26.20;99.90;;;;;;5033297;28;20495;-57
2023/09/12 02:53:38;;;;;;;41.40;39.10;;;26.20;99.90;;;;;;5032880;28;20506;-57
2023/09/12 02:56:05;;;;;;;39.33;37.30;;;26.20;99.90;;;;;;5032594;28;20480;-57
2023/09/12 02:58:32;;;;;;;48.87;46.47;;;26.20;99.90;;;;;;5032938;28;20489;-61
2023/09/12 03:00:59;;;;;;;49.50;47.10;;;26.20;99.90;;;;;;5033324;28;21030;-62
2023/09/12 03:03:26;;;;;;;52.67;50.07;;;26.30;99.90;;;;;;5033412;28;20445;-62
2023/09/12 03:06:02;;;;;;;50.83;48.03;;;26.30;99.90;;;;;;5032932;28;20510;-59
2023/09/12 03:08:33;;;;;;;42.37;39.87;;;26.40;99.90;;;;;;5030620;28;20437;-61
2023/09/12 03:11:02;;;;;;;41.03;38.80;;;26.40;99.90;;;;;;5033378;28;20457;-61
2023/09/12 03:13:33;;;;;;;42.80;40.50;;;26.50;99.90;;;;;;5032200;28;20445;-60
2023/09/12 03:16:01;;;;;;;42.43;39.93;;;26.60;99.90;;;;;;5032964;28;20477;-61
2023/09/12 03:18:30;;;;;;;43.70;41.27;;;26.60;99.90;;;;;;5033226;28;20441;-61
2023/09/12 03:20:59;;;;;;;43.03;40.63;;;26.70;99.90;;;;;;5032842;28;20467;-62
2023/09/12 03:23:27;;;;;;;41.07;38.80;;;26.70;99.90;;;;;;5032536;28;20473;-61
2023/09/12 03:26:03;;;;;;;42.43;40.20;;;26.70;99.90;;;;;;5032914;28;20484;-61
2023/09/12 03:28:30;;;;;;;42.37;39.77;;;26.70;99.90;;;;;;5030213;28;20499;-61
2023/09/12 03:31:08;;;;;;;44.13;41.53;;;26.70;99.90;;;;;;5032658;28;20457;-62
2023/09/12 03:33:36;;;;;;;43.20;41.00;;;26.60;99.90;;;;;;5032737;28;20862;-61
2023/09/12 03:36:04;;;;;;;42.70;40.40;;;26.60;99.90;;;;;;5032433;28;20507;-61
2023/09/12 03:38:33;;;;;;;43.00;40.70;;;26.60;99.90;;;;;;5032306;28;20442;-62
2023/09/12 03:41:00;;;;;;;42.70;40.43;;;26.60;99.90;;;;;;5031731;28;20523;-60
2023/09/12 03:43:29;;;;;;;42.53;40.20;;;26.60;99.90;;;;;;5032298;28;20506;-61
2023/09/12 03:45:57;;;;;;;44.30;41.73;;;26.50;99.90;;;;;;5032326;28;20464;-61
2023/09/12 03:48:24;;;;;;;43.27;40.90;;;26.50;99.90;;;;;;5032830;28;20520;-60
2023/09/12 03:50:53;;;;;;;42.70;40.07;;;26.50;99.90;;;;;;5024461;28;20947;-61
2023/09/12 03:53:22;;;;;;;40.83;38.57;;;26.50;99.90;;;;;;5031865;28;20503;-61
2023/09/12 03:55:50;;;;;;;42.87;40.57;;;26.50;99.90;;;;;;5032023;28;20483;-61
2023/09/12 03:58:17;;;;;;;39.40;37.10;;;26.40;99.90;;;;;;5033059;28;20811;-61
2023/09/12 04:00:46;;;;;;;43.40;41.00;;;26.40;99.90;;;;;;5032900;28;20451;-61
2023/09/12 04:03:16;;;;;;;46.53;43.93;;;26.40;99.90;;;;;;5032178;28;20445;-60
2023/09/12 04:05:43;;;;;;;48.17;45.67;;;26.30;99.90;;;;;;5031770;28;20481;-62
2023/09/12 04:08:10;;;;;;;47.57;45.17;;;26.30;99.90;;;;;;5032423;28;20505;-60
2023/09/12 04:13:21;;;;;;;49.13;46.67;;;26.30;99.90;;;;;;5030615;28;20499;-61
2023/09/12 04:15:50;;;;;;;45.17;42.70;;;26.30;99.90;;;;;;5032296;28;20475;-62
2023/09/12 04:18:19;;;;;;;46.33;43.90;;;26.30;99.90;;;;;;5032310;28;20487;-60
2023/09/12 04:20:46;;;;;;;48.47;45.93;;;26.30;99.90;;;;;;5032090;28;20449;-61
2023/09/12 04:23:14;;;;;;;46.93;44.00;;;26.30;99.90;;;;;;5032472;28;20852;-61
2023/09/12 04:25:44;;;;;;;46.57;44.00;;;26.30;99.90;;;;;;5036288;28;20472;-61
2023/09/12 04:28:12;;;;;;;49.07;45.70;;;26.30;99.90;;;;;;5036493;28;20429;-61
2023/09/12 04:30:41;;;;;;;48.70;45.23;;;26.30;99.90;;;;;;5036173;28;20445;-61
2023/09/12 04:33:10;;;;;;;49.53;46.13;;;26.30;99.90;;;;;;5036569;28;20519;-65
2023/09/12 04:35:39;;;;;;;56.87;54.13;;;26.40;99.90;;;;;;5041478;28;20516;-66
2023/09/12 04:38:06;;;;;;;60.33;56.87;;;26.40;99.90;;;;;;5040258;28;20441;-63
2023/09/12 04:40:35;;;;;;;57.13;54.20;;;26.40;99.90;;;;;;5035913;28;20526;-61
2023/09/12 04:43:01;;;;;;;48.00;45.27;;;26.40;99.90;;;;;;5035321;28;20448;-62
2023/09/12 04:45:34;;;;;;;45.23;42.70;;;26.50;99.90;;;;;;5017014;28;20500;-62
2023/09/12 04:48:04;;;;;;;44.00;41.50;;;26.50;99.90;;;;;;5035854;28;20441;-61
2023/09/12 04:50:32;;;;;;;48.30;45.10;;;26.60;99.90;;;;;;5035707;28;20504;-62
2023/09/12 04:53:01;;;;;;;43.63;41.23;;;26.60;99.90;;;;;;5035165;28;20527;-60
2023/09/12 04:55:30;;;;;;;44.87;42.50;;;26.60;99.90;;;;;;5035279;28;20954;-60
2023/09/12 04:57:59;;;;;;;44.50;42.20;;;26.70;99.90;;;;;;5034952;28;20437;-59
2023/09/12 05:00:28;;;;;;;50.83;48.33;;;26.70;99.90;;;;;;5035316;28;20444;-62
2023/09/12 05:02:57;;;;;;;49.20;46.80;;;26.70;99.90;;;;;;5035231;28;20464;-61
2023/09/12 05:05:26;;;;;;;50.60;48.20;;;26.70;99.90;;;;;;5017854;28;21043;-61
2023/09/12 05:07:54;;;;;;;43.30;40.87;;;26.70;99.90;;;;;;5027170;28;20445;-62
2023/09/12 05:10:26;;;;;;;45.53;43.23;;;26.70;99.90;;;;;;5033765;28;20472;-62
2023/09/12 05:12:53;;;;;;;45.23;42.93;;;26.70;99.90;;;;;;5026371;28;20461;-62
2023/09/12 05:15:31;;;;;;;47.60;45.10;;;26.70;99.90;;;;;;5035121;28;20440;-62
2023/09/12 05:18:02;;;;;;;48.43;45.63;;;26.60;99.90;;;;;;5027571;28;20455;-61
2023/09/12 05:20:31;;;;;;;47.53;45.13;;;26.60;99.90;;;;;;5034688;28;20441;-62
2023/09/12 05:23:06;;;;;;;45.93;43.63;;;26.60;99.90;;;;;;5034749;28;20449;-61
2023/09/12 05:25:36;;;;;;;45.83;43.43;;;26.60;99.90;;;;;;5034468;28;20488;-62
2023/09/12 05:28:04;;;;;;;44.73;42.53;;;26.60;99.90;;;;;;5017612;28;20860;-61
2023/09/12 05:30:31;;;;;;;45.57;43.03;;;26.60;99.90;;;;;;5034471;28;20495;-62
2023/09/12 05:32:58;;;;;;;43.40;41.30;;;26.50;99.90;;;;;;5034743;28;20469;-60
2023/09/12 05:35:25;;;;;;;45.63;43.23;;;26.50;99.90;;;;;;5033530;28;20465;-62
2023/09/12 05:37:52;;;;;;;41.53;39.53;;;26.50;99.90;;;;;;5034595;28;20441;-59
2023/09/12 05:40:20;;;;;;;40.90;38.80;;;26.50;99.90;;;;;;5034683;28;20860;-62
2023/09/12 05:42:47;;;;;;;42.20;40.07;;;26.50;99.90;;;;;;5034412;28;20496;-63
2023/09/12 05:45:14;;;;;;;47.33;44.93;;;26.50;99.90;;;;;;5034532;28;20509;-61
2023/09/12 05:47:41;;;;;;;42.27;39.87;;;26.50;99.90;;;;;;5034369;28;20481;-62
2023/09/12 05:50:08;;;;;;;44.20;41.93;;;26.50;99.90;;;;;;5034403;28;20480;-62
2023/09/12 05:52:36;;;;;;;46.00;43.70;;;26.50;99.90;;;;;;5034035;28;20515;-62
2023/09/12 05:55:04;;;;;;;48.50;45.90;;;26.50;99.90;;;;;;5034343;28;20429;-60
2023/09/12 05:57:33;;;;;;;46.67;44.10;;;26.50;99.90;;;;;;5034329;28;20456;-61
2023/09/12 06:00:00;;;;;;;45.80;43.50;;;26.40;99.90;;;;;;5034315;28;20854;-63
2023/09/12 06:02:28;;;;;;;45.10;42.80;;;26.40;99.90;;;;;;5034094;28;20515;-61
2023/09/12 06:04:55;;;;;;;43.97;41.77;;;26.40;99.90;;;;;;5034147;28;21007;-61
2023/09/12 06:07:22;;;;;;;45.30;43.00;;;26.40;99.90;;;;;;5034175;28;20469;-62
2023/09/12 06:09:49;;;;;;;44.73;41.83;;;26.40;99.90;;;;;;5033962;28;20469;-62
2023/09/12 06:12:16;;;;;;;44.30;41.80;;;26.40;99.90;;;;;;5033666;28;20485;-63
2023/09/12 06:14:44;;;;;;;43.10;40.90;;;26.40;99.90;;;;;;5033752;28;20479;-61
2023/09/12 06:17:11;;;;;;;42.97;40.57;;;26.30;99.90;;;;;;5033911;28;20973;-62
2023/09/12 06:19:39;;;;;;;44.67;42.30;;;26.30;99.90;;;;;;5033722;28;20945;-61
2023/09/12 06:22:06;;;;;;;44.07;41.93;;;26.30;99.90;;;;;;5033511;28;20534;-62
2023/09/12 06:24:33;;;;;;;47.97;45.47;;;26.30;99.90;;;;;;5033314;28;20476;-62
2023/09/12 06:26:59;;;;;;;48.00;45.57;;;26.30;99.90;;;;;;5033822;28;20473;-62
2023/09/12 06:29:26;;;;;;;47.60;45.07;;;26.30;99.90;;;;;;5033818;28;20469;-62
2023/09/12 06:31:56;;;;;;;46.77;44.47;;;26.30;99.90;;;;;;5033400;28;20481;-62
2023/09/12 06:34:22;;;;;;;45.67;43.20;;;26.30;99.90;;;;;;5033397;28;20441;-62
2023/09/12 06:36:49;;;;;;;41.70;39.60;;;26.30;99.90;;;;;;5033383;28;20469;-61
2023/09/12 06:39:16;;;;;;;47.60;45.07;;;26.30;99.90;;;;;;5033153;28;20469;-58
2023/09/12 06:41:43;;;;;;;46.70;44.23;;;26.30;99.90;;;;;;5032870;28;20507;-64
2023/09/12 06:44:10;;;;;;;45.50;43.00;;;26.30;99.90;;;;;;5033061;28;20442;-58
2023/09/12 06:46:38;;;;;;;45.20;42.90;;;26.30;99.90;;;;;;5032699;28;20513;-56
2023/09/12 06:49:06;;;;;;;44.60;42.50;;;26.30;99.90;;;;;;5033019;28;20988;-59
2023/09/12 06:51:33;;;;;;;45.50;43.23;;;26.30;99.90;;;;;;5032870;28;20488;-60
2023/09/12 06:54:00;;;;;;;42.83;40.73;;;26.30;99.90;;;;;;5032711;28;20484;-57
2023/09/12 06:56:27;;;;;;;42.87;40.77;;;26.30;99.90;;;;;;5033070;28;20527;-61
2023/09/12 06:58:55;;;;;;;45.00;42.67;;;26.30;99.90;;;;;;5032703;28;20960;-57
2023/09/12 07:01:22;;;;;;;45.30;43.20;;;26.30;99.90;;;;;;5032787;28;20527;-61
2023/09/12 07:03:53;;;;;;;44.37;42.17;;;26.30;99.90;;;;;;5032528;28;20488;-60
2023/09/12 07:06:21;;;;;;;44.60;42.30;;;26.30;99.90;;;;;;5032698;28;20481;-59
2023/09/12 07:08:48;;;;;;;44.57;42.37;;;26.30;99.90;;;;;;5032833;28;20983;-59
2023/09/12 07:11:15;;;;;;;43.20;41.03;;;26.30;99.90;;;;;;5032731;28;20598;-60
2023/09/12 07:13:42;;;;;;;45.60;43.40;;;26.30;99.90;;;;;;5032278;28;20483;-61
2023/09/12 07:16:09;;;;;;;48.00;45.80;;;26.40;99.90;;;;;;5032695;28;20465;-60
2023/09/12 07:18:36;;;;;;;45.83;43.73;;;26.30;99.90;;;;;;5032603;28;20479;-61
2023/09/12 07:21:05;;;;;;;44.97;42.67;;;26.40;99.90;;;;;;5032553;28;20511;-61
2023/09/12 07:23:33;;;;;;;44.43;42.23;;;26.30;99.90;;;;;;5032441;28;20968;-58
2023/09/12 07:26:02;;;;;;;44.23;41.90;;;26.30;99.90;;;;;;5024552;28;20505;-60
2023/09/12 07:28:31;;;;;;;45.43;42.87;;;26.40;99.90;;;;;;5032408;28;20444;-59
2023/09/12 07:30:58;;;;;;;47.83;45.73;;;26.30;99.90;;;;;;5024324;28;20465;-60
2023/09/12 07:33:25;;;;;;;46.23;44.03;;;26.40;99.90;;;;;;5032269;28;20479;-61
2023/09/12 07:35:53;;;;;;;48.20;45.90;;;26.40;99.90;;;;;;5032244;28;20504;-58
2023/09/12 07:38:21;;;;;;;49.67;47.47;;;26.30;99.90;;;;;;5032514;28;20580;-60
2023/09/12 07:40:49;;;;;;;49.40;47.00;;;26.30;99.90;;;;;;5032447;28;20484;-60
2023/09/12 07:43:16;;;;;;;47.03;44.93;;;26.30;99.90;;;;;;5032272;28;20513;-62
2023/09/12 07:45:43;;;;;;;47.40;45.27;;;26.30;99.90;;;;;;5032155;28;20594;-60
2023/09/12 07:48:12;;;;;;;45.53;43.43;;;26.30;99.90;;;;;;5032189;28;20468;-60
2023/09/12 07:50:39;;;;;;;45.13;43.03;;;26.40;99.90;;;;;;5032214;28;20476;-60
2023/09/12 07:53:06;;;;;;;49.20;46.90;;;26.40;99.90;;;;;;5032028;28;20444;-58
2023/09/12 07:55:44;;;;;;;48.53;46.33;;;26.40;99.90;;;;;;5031983;28;20920;-60
2023/09/12 07:58:13;;;;;;;46.30;44.20;;;26.40;99.90;;;;;;5025390;28;20445;-57
2023/09/12 08:00:40;;;;;;;47.87;45.40;;;26.40;99.90;;;;;;5031841;28;20469;-57
2023/09/12 08:03:07;;;;;;;45.40;43.40;;;26.40;99.90;;;;;;5031796;28;20441;-60
2023/09/12 08:05:34;;;;;;;46.83;44.43;;;26.40;99.90;;;;;;5031938;28;20928;-61
2023/09/12 08:08:01;;;;;;;45.23;43.23;;;26.40;99.90;;;;;;5031866;28;20476;-62
2023/09/12 08:10:28;;;;;;;47.13;45.03;;;26.30;99.90;;;;;;5031897;28;20437;-59
2023/09/12 08:12:55;;;;;;;46.17;43.97;;;26.30;99.90;;;;;;5031473;28;20433;-61
2023/09/12 08:15:23;;;;;;;47.53;45.33;;;26.30;99.90;;;;;;5031889;28;20465;-61
2023/09/12 08:17:53;;;;;;;48.20;46.10;;;26.30;99.90;;;;;;5031781;28;20473;-61
2023/09/12 08:20:20;;;;;;;45.20;43.20;;;26.30;99.90;;;;;;5031768;28;20445;-61
2023/09/12 08:22:47;;;;;;;46.27;44.23;;;26.30;99.90;;;;;;5031665;28;20469;-60
2023/09/12 08:25:14;;;;;;;47.33;45.13;;;26.30;99.90;;;;;;5031675;28;20473;-60
2023/09/12 08:27:43;;;;;;;48.50;46.30;;;26.30;99.90;;;;;;5031658;28;20537;-58
2023/09/12 08:30:12;;;;;;;46.90;44.77;;;26.30;99.90;;;;;;5031749;28;20869;-62
2023/09/12 08:32:43;;;;;;;48.63;46.27;;;26.30;99.90;;;;;;5031333;28;20556;-61
2023/09/12 08:35:11;;;;;;;48.53;46.33;;;26.30;99.90;;;;;;5031710;28;20512;-63
2023/09/12 08:37:39;;;;;;;46.77;43.83;;;26.30;99.90;;;;;;5031695;28;20445;-62
2023/09/12 08:40:08;;;;;;;48.57;45.93;;;26.30;99.90;;;;;;5031558;28;20964;-62
2023/09/12 08:42:41;;;;;;;45.10;43.00;;;26.30;99.90;;;;;;5031198;28;20467;-64
2023/09/12 08:45:12;;;;;;;46.53;44.17;;;26.30;99.90;;;;;;5031381;28;20446;-58
2023/09/12 08:47:42;;;;;;;46.07;44.07;;;26.30;99.90;;;;;;5031523;28;20441;-58
2023/09/12 08:50:12;;;;;;;46.13;44.13;;;26.30;99.90;;;;;;5031438;28;20469;-58
2023/09/12 08:52:39;;;;;;;43.80;41.80;;;26.30;99.90;;;;;;5031322;28;20471;-59
2023/09/12 08:55:07;;;;;;;44.60;42.60;;;26.30;99.90;;;;;;5031188;28;20877;-58
2023/09/12 08:57:36;;;;;;;45.17;42.90;;;26.30;99.90;;;;;;5031315;28;20469;-60
2023/09/12 09:00:05;;;;;;;43.80;41.80;;;26.30;99.90;;;;;;5023478;28;20469;-60
2023/09/12 09:02:33;;;;;;;41.70;39.80;;;26.30;99.90;;;;;;5031220;28;20972;-59
2023/09/12 09:05:04;;;;;;;45.10;43.00;;;26.30;99.90;;;;;;5031259;28;20469;-61
2023/09/12 09:07:32;;;;;;;41.13;39.23;;;26.30;99.90;;;;;;5031312;28;20476;-57
2023/09/12 09:10:00;;;;;;;42.77;40.77;;;26.30;99.90;;;;;;5032354;28;20476;-58
2023/09/12 09:12:28;;;;;;;42.70;40.70;;;26.30;99.90;;;;;;5034883;28;20492;-63
2023/09/12 09:14:55;;;;;;;41.10;39.20;;;26.30;99.90;;;;;;5034889;28;20437;-62
2023/09/12 09:17:22;;;;;;;40.37;38.43;;;26.30;99.90;;;;;;5034990;28;20503;-64
2023/09/12 09:19:49;;;;;;;43.70;41.73;;;26.20;99.90;;;;;;5034835;28;20456;-62
2023/09/12 09:22:17;;;;;;;41.27;39.37;;;26.30;99.90;;;;;;5034491;28;20492;-64
2023/09/12 09:24:45;;;;;;;42.93;41.13;;;26.30;99.90;;;;;;5034768;28;20469;-63
2023/09/12 09:27:11;;;;;;;45.17;43.17;;;26.30;99.90;;;;;;5034820;28;20481;-60
2023/09/12 09:29:49;;;;;;;41.77;39.97;;;26.30;99.90;;;;;;5034813;28;20499;-63
2023/09/12 09:32:21;;;;;;;41.50;39.60;;;26.30;99.90;;;;;;5034379;28;20456;-60
2023/09/12 09:34:48;;;;;;;45.17;43.17;;;26.30;99.90;;;;;;5034621;28;20444;-62
2023/09/12 09:37:19;;;;;;;40.00;38.20;;;26.30;99.90;;;;;;5034559;28;20495;-61
2023/09/12 09:39:47;;;;;;;43.73;41.83;;;26.30;99.90;;;;;;5034420;28;20520;-63
2023/09/12 09:42:14;;;;;;;42.43;40.53;;;26.20;99.90;;;;;;5034355;28;20848;-62
2023/09/12 09:44:41;;;;;;;45.33;43.10;;;26.20;99.90;;;;;;5034304;28;20483;-61
2023/09/12 09:47:09;;;;;;;40.87;38.97;;;26.20;99.90;;;;;;5034415;28;20504;-61
2023/09/12 09:49:37;;;;;;;42.97;41.17;;;26.20;99.90;;;;;;5034365;28;20473;-60
2023/09/12 09:52:05;;;;;;;43.37;41.47;;;26.20;99.90;;;;;;5026011;28;20515;-60
2023/09/12 09:54:33;;;;;;;43.00;41.00;;;26.20;99.90;;;;;;5034230;28;20456;-60
2023/09/12 09:57:00;;;;;;;43.73;41.80;;;26.20;99.90;;;;;;5034073;28;20875;-59
2023/09/12 09:59:28;;;;;;;41.43;39.30;;;26.20;99.90;;;;;;5034209;28;20465;-61
2023/09/12 10:01:57;;;;;;;43.00;41.00;;;26.20;99.90;;;;;;5033683;28;20515;-60
2023/09/12 10:04:27;;;;;;;42.00;40.10;;;26.20;99.90;;;;;;5034085;28;20469;-60
2023/09/12 10:06:57;;;;;;;42.33;40.33;;;26.20;99.90;;;;;;5033764;28;21039;-59
2023/09/12 10:09:27;;;;;;;44.90;43.00;;;26.30;99.90;;;;;;5033884;28;20956;-56
2023/09/12 10:11:56;;;;;;;44.33;42.37;;;26.30;99.90;;;;;;5033375;28;20900;-57
2023/09/12 10:14:25;;;;;;;43.77;41.77;;;26.30;99.90;;;;;;5033407;28;20475;-60
2023/09/12 10:16:56;;;;;;;43.13;41.23;;;26.30;99.90;;;;;;5033361;28;20478;-60
2023/09/12 10:19:26;;;;;;;43.20;41.30;;;26.30;99.90;;;;;;5033277;28;20473;-62
2023/09/12 10:22:10;;;;;;;40.30;38.60;;;26.30;99.90;;;;;;5032363;28;20469;-59
2023/09/12 10:24:37;;;;;;;42.30;40.40;;;26.30;99.90;;;;;;5033360;28;20473;-60
2023/09/12 10:27:07;;;;;;;42.30;40.50;;;26.30;99.90;;;;;;5025164;28;20509;-59
2023/09/12 10:29:34;;;;;;;42.27;40.47;;;26.30;99.90;;;;;;5033255;28;20953;-62
2023/09/12 10:32:01;;;;;;;39.80;38.00;;;26.30;99.90;;;;;;5032838;28;20496;-58
2023/09/12 10:34:31;;;;;;;42.13;40.13;;;26.30;99.90;;;;;;5032940;28;20469;-56
2023/09/12 10:36:59;;;;;;;42.40;40.43;;;26.30;99.90;;;;;;5032904;28;20830;-58
2023/09/12 10:39:28;;;;;;;41.57;39.77;;;26.30;99.90;;;;;;5032924;28;20444;-58
2023/09/12 10:41:56;;;;;;;42.73;40.83;;;26.30;99.90;;;;;;5032600;28;20461;-56
2023/09/12 10:44:25;;;;;;;44.33;42.43;;;26.30;99.90;;;;;;5032829;28;20491;-57
2023/09/12 10:46:54;;;;;;;43.30;41.20;;;26.30;99.90;;;;;;5032591;28;20534;-60
2023/09/12 10:49:21;;;;;;;39.83;37.80;;;26.30;99.90;;;;;;5032726;28;20448;-58
2023/09/12 10:51:49;;;;;;;43.00;40.87;;;26.30;99.90;;;;;;5032291;28;20500;-59
2023/09/12 10:54:24;;;;;;;43.00;41.10;;;26.30;99.90;;;;;;5032719;28;20480;-60
2023/09/12 10:57:04;;;;;;;43.90;41.80;;;26.40;99.90;;;;;;5032611;28;20432;-60
2023/09/12 10:59:35;;;;;;;42.43;40.43;;;26.30;99.90;;;;;;5032750;28;20945;-58
2023/09/12 11:02:30;;;;;;;44.43;42.23;;;26.30;99.90;;;;;;5032062;28;20973;-58
2023/09/12 11:04:57;;;;;;;40.23;38.33;;;26.30;99.90;;;;;;5032441;28;20429;-61
2023/09/12 11:07:34;;;;;;;43.33;41.23;;;26.40;99.90;;;;;;5032360;28;21061;-59
2023/09/12 11:10:19;;;;;;;41.77;39.77;;;26.40;99.90;;;;;;5032258;28;20476;-60
2023/09/12 11:12:47;;;;;;;43.63;41.63;;;26.40;99.90;;;;;;5032002;28;20578;-60
2023/09/12 11:15:17;;;;;;;42.57;40.57;;;26.40;99.90;;;;;;5032486;28;20804;-57
2023/09/12 11:17:44;;;;;;;42.20;40.40;;;26.40;99.90;;;;;;5032284;28;20532;-58
2023/09/12 11:20:12;;;;;;;42.03;40.03;;;26.40;99.90;;;;;;5032126;28;20872;-60
2023/09/12 11:22:40;;;;;;;41.63;39.53;;;26.40;99.90;;;;;;5031810;28;20497;-56
2023/09/12 11:25:18;;;;;;;47.03;44.87;;;26.40;99.90;;;;;;5024100;28;20876;-60
2023/09/12 11:28:02;;;;;;;46.20;44.10;;;26.40;99.90;;;;;;5031974;28;20486;-60
2023/09/12 11:30:31;;;;;;;47.43;45.33;;;26.50;99.90;;;;;;5032011;28;20437;-60
2023/09/12 11:32:59;;;;;;;45.43;43.20;;;26.50;99.90;;;;;;5031150;28;20447;-60
2023/09/12 11:35:28;;;;;;;48.40;46.20;;;26.50;99.90;;;;;;5031626;28;20516;-59
2023/09/12 11:37:57;;;;;;;45.60;43.43;;;26.50;99.90;;;;;;5031791;28;20963;-62
2023/09/12 11:40:25;;;;;;;45.87;43.67;;;26.50;99.90;;;;;;5031776;28;20875;-62
2023/09/12 11:42:52;;;;;;;46.43;44.40;;;26.50;99.90;;;;;;5031444;28;20515;-60
2023/09/12 11:45:21;;;;;;;46.10;44.00;;;26.50;99.90;;;;;;5031821;28;20877;-58
2023/09/12 11:47:49;;;;;;;46.97;44.53;;;26.50;99.90;;;;;;5031726;28;20516;-58
2023/09/12 11:50:29;;;;;;;46.50;44.40;;;26.50;99.90;;;;;;5031681;28;20473;-58
2023/09/12 11:53:01;;;;;;;47.27;45.07;;;26.50;99.90;;;;;;5031430;28;20451;-60
2023/09/12 11:55:30;;;;;;;47.87;45.77;;;26.60;99.90;;;;;;5031629;28;20469;-58
2023/09/12 11:57:57;;;;;;;49.40;47.10;;;26.60;99.90;;;;;;5031438;28;20449;-58
2023/09/12 12:00:26;;;;;;;46.20;44.00;;;26.60;99.90;;;;;;5031365;28;20473;-58
2023/09/12 12:02:54;;;;;;;45.63;43.53;;;26.60;99.90;;;;;;5031176;28;20473;-55
2023/09/12 12:05:22;;;;;;;49.03;46.53;;;26.60;99.90;;;;;;5031454;28;20441;-60
2023/09/12 12:07:49;;;;;;;48.70;46.50;;;26.60;99.90;;;;;;5031274;28;20515;-58
2023/09/12 12:10:16;;;;;;;46.67;44.37;;;26.60;99.90;;;;;;5031387;28;20481;-56
2023/09/12 12:12:45;;;;;;;47.23;45.10;;;26.60;99.90;;;;;;5030859;28;20523;-58
2023/09/12 12:15:13;;;;;;;47.00;44.80;;;26.60;99.90;;;;;;5031443;28;20442;-58
2023/09/12 12:17:42;;;;;;;51.03;48.70;;;26.60;99.90;;;;;;5031553;28;20445;-59
2023/09/12 12:20:12;;;;;;;49.60;47.40;;;26.60;99.90;;;;;;5023466;28;20529;-54
2023/09/12 12:22:40;;;;;;;46.33;44.23;;;26.70;99.90;;;;;;5030894;28;20527;-56
2023/09/12 12:25:08;;;;;;;45.80;43.70;;;26.60;99.90;;;;;;5031188;28;20468;-56
2023/09/12 12:27:36;;;;;;;45.83;43.77;;;26.70;99.90;;;;;;5031174;28;20491;-58
2023/09/12 12:30:04;;;;;;;45.90;43.80;;;26.70;99.90;;;;;;5030922;28;20488;-59
2023/09/12 12:32:31;;;;;;;46.27;44.17;;;26.70;99.90;;;;;;5030852;28;20493;-56
2023/09/12 12:34:58;;;;;;;45.00;42.80;;;26.70;99.80;;;;;;5031148;28;20472;-60
2023/09/12 12:37:31;;;;;;;46.50;44.20;;;26.70;99.80;;;;;;5031032;28;20476;-57